createdAt,value
2023-04-01T00:01:54.858Z,68.06
2023-04-01T00:04:24.856Z,68.57
2023-04-01T00:06:55.534Z,68.60
2023-04-01T00:09:25.544Z,68.92
2023-04-01T00:11:59.995Z,68.79
2023-04-01T00:14:32.582Z,68.65
2023-04-01T00:17:02.955Z,68.84
2023-04-01T00:19:33.639Z,68.78
2023-04-01T00:22:03.643Z,68.96
2023-04-01T00:24:33.706Z,69.01
2023-04-01T00:27:03.619Z,68.81
2023-04-01T00:29:38.129Z,68.76
2023-04-01T00:32:08.553Z,68.93
2023-04-01T00:34:38.812Z,68.78
2023-04-01T00:37:08.921Z,68.86
2023-04-01T00:39:39.888Z,69.11
2023-04-01T00:42:22.955Z,68.79
2023-04-01T00:45:10.876Z,69.13
2023-04-01T00:47:55.306Z,69.10
2023-04-01T00:50:35.145Z,68.87
2023-04-01T00:53:07.137Z,68.97
2023-04-01T00:55:42.874Z,69.07
2023-04-01T00:58:20.928Z,69.05
2023-04-01T01:00:56.666Z,69.34
2023-04-01T01:03:28.100Z,69.52
2023-04-01T01:06:24.366Z,69.18
2023-04-01T01:09:11.826Z,69.30
2023-04-01T01:11:47.123Z,69.33
2023-04-01T01:14:41.036Z,69.18
2023-04-01T01:17:23.428Z,69.28
2023-04-01T01:20:26.048Z,69.26
2023-04-01T01:23:25.946Z,69.47
2023-04-01T01:26:14.014Z,69.69
2023-04-01T01:28:58.119Z,70.05
2023-04-01T01:31:41.145Z,70.13
2023-04-01T01:34:26.383Z,70.06
2023-04-01T01:37:05.183Z,70.27
2023-04-01T01:39:38.968Z,70.15
2023-04-01T01:42:13.449Z,70.38
2023-04-01T01:44:48.499Z,70.83
2023-04-01T01:47:23.110Z,71.03
2023-04-01T01:49:56.067Z,71.38
2023-04-01T01:52:31.993Z,72.06
2023-04-01T01:55:02.765Z,71.79
2023-04-01T01:57:44.651Z,71.24
2023-04-01T02:00:21.868Z,70.85
2023-04-01T02:02:53.997Z,70.48
2023-04-01T02:05:28.191Z,70.65
2023-04-01T02:08:13.549Z,70.93
2023-04-01T02:10:51.369Z,69.95
2023-04-01T02:13:33.046Z,69.38
2023-04-01T02:16:09.877Z,68.99
2023-04-01T02:18:43.309Z,68.43
2023-04-01T02:21:15.460Z,67.86
2023-04-01T02:23:50.979Z,67.73
2023-04-01T02:26:22.451Z,67.79
2023-04-01T02:28:55.578Z,67.66
2023-04-01T02:31:28.585Z,67.71
2023-04-01T02:33:58.860Z,67.54
2023-04-01T02:36:29.058Z,67.59
2023-04-01T02:39:05.418Z,67.38
2023-04-01T02:41:35.486Z,67.54
2023-04-01T02:44:05.687Z,67.54
2023-04-01T02:46:35.999Z,67.88
2023-04-01T02:49:06.197Z,67.76
2023-04-01T02:51:36.658Z,67.71
2023-04-01T02:54:09.308Z,67.66
2023-04-01T02:56:39.353Z,67.73
2023-04-01T02:59:09.305Z,67.74
2023-04-01T03:01:39.610Z,67.70
2023-04-01T03:04:09.586Z,67.46
2023-04-01T03:06:39.528Z,67.72
2023-04-01T03:09:12.519Z,67.64
2023-04-01T03:11:42.674Z,67.89
2023-04-01T03:14:12.617Z,67.77
2023-04-01T03:16:42.576Z,67.77
2023-04-01T03:19:12.632Z,67.85
2023-04-01T03:21:42.714Z,67.59
2023-04-01T03:24:15.557Z,67.42
2023-04-01T03:26:45.622Z,67.07
2023-04-01T03:29:16.882Z,67.40
2023-04-01T03:31:47.608Z,66.98
2023-04-01T03:34:17.842Z,66.86
2023-04-01T03:36:47.982Z,66.81
2023-04-01T03:39:20.993Z,66.64
2023-04-01T03:41:51.171Z,66.37
2023-04-01T03:44:21.234Z,66.71
2023-04-01T03:46:54.667Z,66.53
2023-04-01T03:49:24.705Z,66.41
2023-04-01T03:51:54.636Z,66.57
2023-04-01T03:54:27.864Z,66.43
2023-04-01T03:56:59.160Z,66.46
2023-04-01T03:59:29.553Z,66.54
2023-04-01T04:01:59.581Z,66.19
2023-04-01T04:04:30.007Z,66.37
2023-04-01T04:07:02.051Z,66.35
2023-04-01T04:09:39.233Z,66.36
2023-04-01T04:12:10.208Z,66.40
2023-04-01T04:14:40.806Z,66.36
2023-04-01T04:17:14.794Z,66.63
2023-04-01T04:19:44.776Z,66.55
2023-04-01T04:22:14.970Z,66.57
2023-04-01T04:24:47.508Z,66.67
2023-04-01T04:27:17.525Z,66.76
2023-04-01T04:29:57.605Z,66.60
2023-04-01T04:32:29.439Z,66.74
2023-04-01T04:35:00.264Z,66.43
2023-04-01T04:37:30.284Z,66.39
2023-04-01T04:40:02.945Z,66.21
2023-04-01T04:42:34.023Z,66.28
2023-04-01T04:45:10.579Z,66.17
2023-04-01T04:47:43.110Z,66.66
2023-04-01T04:50:14.234Z,66.76
2023-04-01T04:52:44.589Z,66.43
2023-04-01T04:55:17.353Z,66.38
2023-04-01T04:57:51.331Z,66.22
2023-04-01T05:00:22.132Z,65.89
2023-04-01T05:03:02.450Z,66.49
2023-04-01T05:05:32.630Z,66.35
2023-04-01T05:08:03.068Z,66.16
2023-04-01T05:10:36.154Z,66.53
2023-04-01T05:13:06.191Z,66.07
2023-04-01T05:15:36.407Z,65.76
2023-04-01T05:18:06.554Z,66.65
2023-04-01T05:20:37.120Z,66.37
2023-04-01T05:23:07.194Z,66.26
2023-04-01T05:25:41.707Z,65.67
2023-04-01T05:28:12.335Z,65.78
2023-04-01T05:30:45.570Z,66.63
2023-04-01T05:33:29.759Z,66.72
2023-04-01T05:36:00.266Z,66.82
2023-04-01T05:38:30.384Z,67.40
2023-04-01T05:41:05.859Z,68.10
2023-04-01T05:43:40.845Z,68.84
2023-04-01T05:46:39.925Z,69.61
2023-04-01T05:49:20.106Z,70.57
2023-04-01T05:51:52.365Z,70.67
2023-04-01T05:54:23.088Z,70.62
2023-04-01T05:56:56.225Z,71.91
2023-04-01T05:59:26.351Z,71.83
2023-04-01T06:01:58.817Z,72.28
2023-04-01T06:04:38.514Z,72.76
2023-04-01T06:07:14.669Z,73.00
2023-04-01T06:09:45.824Z,73.82
2023-04-01T06:12:48.209Z,73.35
2023-04-01T06:15:29.672Z,73.31
2023-04-01T06:18:32.339Z,73.69
2023-04-01T06:21:15.605Z,73.06
2023-04-01T06:24:14.190Z,73.45
2023-04-01T06:26:57.370Z,73.37
2023-04-01T06:29:50.744Z,72.98
2023-04-01T06:32:53.143Z,73.10
2023-04-01T06:35:56.979Z,73.36
2023-04-01T06:38:50.144Z,73.40
2023-04-01T06:41:46.198Z,73.49
2023-04-01T06:44:26.839Z,73.95
2023-04-01T06:47:34.170Z,74.19
2023-04-01T06:50:32.941Z,74.61
2023-04-01T06:53:30.292Z,74.46
2023-04-01T06:56:23.119Z,74.42
2023-04-01T06:59:14.013Z,74.07
2023-04-01T07:01:48.068Z,74.46
2023-04-01T07:04:28.709Z,74.36
2023-04-01T07:07:03.551Z,75.20
2023-04-01T07:09:39.312Z,74.95
2023-04-01T07:12:50.497Z,75.49
2023-04-01T07:16:02.693Z,75.37
2023-04-01T07:18:41.293Z,75.97
2023-04-01T07:21:26.208Z,76.42
2023-04-01T07:24:05.038Z,76.97
2023-04-01T07:26:59.440Z,76.99
2023-04-01T07:29:33.770Z,77.23
2023-04-01T07:32:31.244Z,77.98
2023-04-01T07:35:17.590Z,78.05
2023-04-01T07:38:07.242Z,78.52
2023-04-01T07:40:47.655Z,79.96
2023-04-01T07:43:48.545Z,80.12
2023-04-01T07:46:46.197Z,81.02
2023-04-01T07:49:25.290Z,80.52
2023-04-01T07:52:04.406Z,80.50
2023-04-01T07:54:50.408Z,80.11
2023-04-01T07:57:27.146Z,79.80
2023-04-01T08:00:08.793Z,79.38
2023-04-01T08:03:07.593Z,79.36
2023-04-01T08:05:48.313Z,79.19
2023-04-01T08:08:29.471Z,78.75
2023-04-01T08:11:23.886Z,78.53
2023-04-01T08:14:23.713Z,78.42
2023-04-01T08:20:11.572Z,77.46
2023-04-01T08:22:46.516Z,78.40
2023-04-01T08:25:32.310Z,77.53
2023-04-01T08:28:15.088Z,77.19
2023-04-01T08:30:49.773Z,77.61
2023-04-01T08:33:27.472Z,77.65
2023-04-01T08:36:12.535Z,77.64
2023-04-01T08:38:50.559Z,77.61
2023-04-01T08:41:54.187Z,77.67
2023-04-01T08:45:15.547Z,77.12
2023-04-01T08:48:12.298Z,76.96
2023-04-01T08:51:07.109Z,77.17
2023-04-01T08:54:07.999Z,77.60
2023-04-01T08:56:51.447Z,76.71
2023-04-01T08:59:42.920Z,76.59
2023-04-01T09:03:17.349Z,76.60
2023-04-01T09:06:25.309Z,77.10
2023-04-01T09:09:25.691Z,76.85
2023-04-01T09:12:27.088Z,77.23
2023-04-01T09:15:29.500Z,77.03
2023-04-01T09:18:28.233Z,77.50
2023-04-01T09:21:31.688Z,77.26
2023-04-01T09:24:29.970Z,76.72
2023-04-01T09:27:29.615Z,77.78
2023-04-01T09:30:36.691Z,76.74
2023-04-01T09:33:39.370Z,78.48
2023-04-01T09:36:28.151Z,77.83
2023-04-01T09:39:02.966Z,78.20
2023-04-01T09:41:35.762Z,78.10
2023-04-01T09:44:23.464Z,78.33
2023-04-01T09:47:29.086Z,77.25
2023-04-01T09:50:33.985Z,77.35
2023-04-01T09:53:22.766Z,78.03
2023-04-01T09:56:33.072Z,76.88
2023-04-01T09:59:34.544Z,76.13
2023-04-01T10:03:06.469Z,77.27
2023-04-01T10:06:24.288Z,76.95
2023-04-01T10:09:41.810Z,76.38
2023-04-01T10:12:49.673Z,77.48
2023-04-01T10:15:47.679Z,78.00
2023-04-01T10:18:48.420Z,77.61
2023-04-01T10:22:00.984Z,77.85
2023-04-01T10:25:06.656Z,77.54
2023-04-01T10:28:00.698Z,77.87
2023-04-01T10:31:59.253Z,77.86
2023-04-01T10:35:08.888Z,79.06
2023-04-01T10:38:15.023Z,78.94
2023-04-01T10:41:26.077Z,79.45
2023-04-01T10:45:00.255Z,78.58
2023-04-01T10:48:13.226Z,78.46
2023-04-01T10:51:16.515Z,77.76
2023-04-01T10:54:07.629Z,77.56
2023-04-01T10:57:19.862Z,78.06
2023-04-01T11:00:38.164Z,77.62
2023-04-01T11:04:27.522Z,77.50
2023-04-01T11:08:05.476Z,77.84
2023-04-01T11:11:24.936Z,78.12
2023-04-01T11:14:31.931Z,78.05
2023-04-01T11:17:30.471Z,79.45
2023-04-01T11:20:32.157Z,77.78
2023-04-01T11:23:26.220Z,78.86
2023-04-01T11:26:18.331Z,78.69
2023-04-01T11:29:30.857Z,78.98
2023-04-01T11:32:28.847Z,78.95
2023-04-01T11:35:24.226Z,78.97
2023-04-01T11:38:08.122Z,78.91
2023-04-01T11:41:02.310Z,78.75
2023-04-01T11:44:11.603Z,78.19
2023-04-01T11:47:40.119Z,78.96
2023-04-01T11:50:28.647Z,78.62
2023-04-01T11:53:14.114Z,78.09
2023-04-01T11:56:00.253Z,78.86
2023-04-01T11:58:53.819Z,79.26
2023-04-01T12:01:42.731Z,79.38
2023-04-01T12:04:50.051Z,79.22
2023-04-01T12:07:31.841Z,79.52
2023-04-01T12:10:19.185Z,80.13
2023-04-01T12:13:03.438Z,80.66
2023-04-01T12:15:50.752Z,80.18
2023-04-01T12:18:34.137Z,81.06
2023-04-01T12:21:21.623Z,81.46
2023-04-01T12:24:23.055Z,81.10
2023-04-01T12:27:10.322Z,80.72
2023-04-01T12:30:14.177Z,81.91
2023-04-01T12:32:52.055Z,80.35
2023-04-01T12:35:28.690Z,80.15
2023-04-01T12:38:19.697Z,79.18
2023-04-01T12:41:07.071Z,79.27
2023-04-01T12:44:03.157Z,79.88
2023-04-01T12:46:58.977Z,80.90
2023-04-01T12:49:57.437Z,80.60
2023-04-01T12:52:45.201Z,81.01
2023-04-01T12:55:51.747Z,81.64
2023-04-01T12:58:57.936Z,80.34
2023-04-01T13:01:57.689Z,79.52
2023-04-01T13:04:53.468Z,79.56
2023-04-01T13:07:54.007Z,78.86
2023-04-01T13:10:56.054Z,78.97
2023-04-01T13:13:51.927Z,79.00
2023-04-01T13:16:30.194Z,79.71
2023-04-01T13:19:12.818Z,79.97
2023-04-01T13:21:55.480Z,79.26
2023-04-01T13:24:43.328Z,78.81
2023-04-01T13:27:22.577Z,78.36
2023-04-01T13:30:11.871Z,77.79
2023-04-01T13:32:51.282Z,77.75
2023-04-01T13:35:39.372Z,77.25
2023-04-01T13:38:46.464Z,76.70
2023-04-01T13:41:29.845Z,77.45
2023-04-01T13:44:11.158Z,78.72
2023-04-01T13:47:08.393Z,78.77
2023-04-01T13:50:10.463Z,79.21
2023-04-01T13:53:16.199Z,80.48
2023-04-01T13:55:59.414Z,79.44
2023-04-01T13:58:47.698Z,78.88
2023-04-01T14:01:26.165Z,79.77
2023-04-01T14:04:24.415Z,79.42
2023-04-01T14:07:08.669Z,79.10
2023-04-01T14:10:07.837Z,79.36
2023-04-01T14:12:54.560Z,79.71
2023-04-01T14:15:43.350Z,79.86
2023-04-01T14:18:37.349Z,79.34
2023-04-01T14:21:25.717Z,80.08
2023-04-01T14:24:27.498Z,80.04
2023-04-01T14:27:29.248Z,80.46
2023-04-01T14:30:20.560Z,80.31
2023-04-01T14:33:00.316Z,80.42
2023-04-01T14:35:41.057Z,79.71
2023-04-01T14:38:34.013Z,80.87
2023-04-01T14:41:19.778Z,79.86
2023-04-01T14:44:21.661Z,80.14
2023-04-01T14:47:40.666Z,80.16
2023-04-01T14:50:17.842Z,79.75
2023-04-01T14:52:59.561Z,79.43
2023-04-01T14:55:36.940Z,79.07
2023-04-01T14:58:16.413Z,79.04
2023-04-01T15:00:54.523Z,79.41
2023-04-01T15:03:34.264Z,79.81
2023-04-01T15:06:36.436Z,79.41
2023-04-01T15:09:22.074Z,79.53
2023-04-01T15:12:04.886Z,79.60
2023-04-01T15:15:00.452Z,79.66
2023-04-01T15:17:50.709Z,79.30
2023-04-01T15:20:45.154Z,78.81
2023-04-01T15:23:31.822Z,77.85
2023-04-01T15:26:21.354Z,78.00
2023-04-01T15:29:11.373Z,75.38
2023-04-01T15:31:50.887Z,75.19
2023-04-01T15:34:32.804Z,77.25
2023-04-01T15:37:17.801Z,78.05
2023-04-01T15:40:01.994Z,77.06
2023-04-01T15:42:51.935Z,78.08
2023-04-01T15:45:36.546Z,78.40
2023-04-01T15:48:17.174Z,78.18
2023-04-01T15:50:58.589Z,78.32
2023-04-01T15:53:53.471Z,78.63
2023-04-01T15:56:34.084Z,79.59
2023-04-01T15:59:20.006Z,78.67
2023-04-01T16:02:02.774Z,79.10
2023-04-01T16:04:50.641Z,78.51
2023-04-01T16:07:47.947Z,78.59
2023-04-01T16:10:48.362Z,78.35
2023-04-01T16:13:46.275Z,78.05
2023-04-01T16:16:31.560Z,78.04
2023-04-01T16:19:26.958Z,77.38
2023-04-01T16:22:05.252Z,77.75
2023-04-01T16:24:44.484Z,77.45
2023-04-01T16:27:23.557Z,76.66
2023-04-01T16:30:01.058Z,77.13
2023-04-01T16:32:45.187Z,76.69
2023-04-01T16:35:29.079Z,76.85
2023-04-01T16:38:07.150Z,76.79
2023-04-01T16:40:50.128Z,77.72
2023-04-01T16:46:29.863Z,77.49
2023-04-01T16:49:20.949Z,77.79
2023-04-01T16:51:58.795Z,76.96
2023-04-01T16:54:40.304Z,77.90
2023-04-01T16:57:22.868Z,77.81
2023-04-01T17:00:06.834Z,78.01
2023-04-01T17:02:46.787Z,77.95
2023-04-01T17:05:17.053Z,77.81
2023-04-01T17:08:00.089Z,77.16
2023-04-01T17:10:42.580Z,76.90
2023-04-01T17:13:39.358Z,77.11
2023-04-01T17:16:31.205Z,76.83
2023-04-01T17:19:16.438Z,76.67
2023-04-01T17:22:03.037Z,76.68
2023-04-01T17:24:51.253Z,76.45
2023-04-01T17:27:37.177Z,77.03
2023-04-01T17:30:21.743Z,76.75
2023-04-01T17:33:14.809Z,76.30
2023-04-01T17:35:59.493Z,76.69
2023-04-01T17:38:54.060Z,76.26
2023-04-01T17:41:40.379Z,76.44
2023-04-01T17:44:25.777Z,76.93
2023-04-01T17:47:13.648Z,77.58
2023-04-01T17:49:57.073Z,78.01
2023-04-01T17:52:36.057Z,77.84
2023-04-01T17:55:46.467Z,78.24
2023-04-01T17:58:24.020Z,78.36
2023-04-01T18:01:13.575Z,78.70
2023-04-01T18:04:22.784Z,79.51
2023-04-01T18:07:29.155Z,79.28
2023-04-01T18:10:15.134Z,79.15
2023-04-01T18:13:14.606Z,79.11
2023-04-01T18:15:54.763Z,78.76
2023-04-01T18:18:44.762Z,79.39
2023-04-01T18:21:28.209Z,79.38
2023-04-01T18:24:09.929Z,79.23
2023-04-01T18:26:46.617Z,79.79
2023-04-01T18:29:31.956Z,79.32
2023-04-01T18:32:19.396Z,79.47
2023-04-01T18:35:01.207Z,80.02
2023-04-01T18:37:37.949Z,79.73
2023-04-01T18:40:21.083Z,79.53
2023-04-01T18:43:06.886Z,79.53
2023-04-01T18:45:44.041Z,79.92
2023-04-01T18:48:43.706Z,80.07
2023-04-01T18:51:21.409Z,79.55
2023-04-01T18:54:01.113Z,79.79
2023-04-01T18:56:39.120Z,79.30
2023-04-01T18:59:15.656Z,79.03
2023-04-01T19:02:00.821Z,78.87
2023-04-01T19:04:41.060Z,78.89
2023-04-01T19:07:52.533Z,78.29
2023-04-01T19:10:35.062Z,78.71
2023-04-01T19:13:23.923Z,78.63
2023-04-01T19:16:08.400Z,77.83
2023-04-01T19:19:05.809Z,77.66
2023-04-01T19:21:44.459Z,77.85
2023-04-01T19:24:41.212Z,77.37
2023-04-01T19:27:26.934Z,77.12
2023-04-01T19:30:18.239Z,76.70
2023-04-01T19:32:59.788Z,76.96
2023-04-01T19:35:43.233Z,76.91
2023-04-01T19:38:23.379Z,76.40
2023-04-01T19:40:59.149Z,76.93
2023-04-01T19:43:48.289Z,76.96
2023-04-01T19:46:33.017Z,76.71
2023-04-01T19:49:24.073Z,76.07
2023-04-01T19:52:05.119Z,76.00
2023-04-01T19:54:45.097Z,76.28
2023-04-01T19:57:29.615Z,75.99
2023-04-01T20:00:09.193Z,75.91
2023-04-01T20:03:03.634Z,75.96
2023-04-01T20:05:53.914Z,76.08
2023-04-01T20:08:35.912Z,76.10
2023-04-01T20:11:24.129Z,75.86
2023-04-01T20:14:10.554Z,75.88
2023-04-01T20:17:06.660Z,76.06
2023-04-01T20:19:45.811Z,76.24
2023-04-01T20:22:38.478Z,76.43
2023-04-01T20:25:20.531Z,76.45
2023-04-01T20:27:58.855Z,76.69
2023-04-01T20:30:58.710Z,76.69
2023-04-01T20:33:58.854Z,76.66
2023-04-01T20:36:40.118Z,76.51
2023-04-01T20:39:52.826Z,76.88
2023-04-01T20:42:36.684Z,77.00
2023-04-01T20:45:25.652Z,76.29
2023-04-01T20:48:17.195Z,76.17
2023-04-01T20:50:55.225Z,75.73
2023-04-01T20:53:38.453Z,76.05
2023-04-01T20:56:31.320Z,76.00
2023-04-01T20:59:24.915Z,76.06
2023-04-01T21:02:08.000Z,76.55
2023-04-01T21:04:57.014Z,75.87
2023-04-01T21:07:38.432Z,76.33
2023-04-01T21:10:33.528Z,76.60
2023-04-01T21:13:21.602Z,76.58
2023-04-01T21:16:05.863Z,76.90
2023-04-01T21:18:59.118Z,77.00
2023-04-01T21:21:57.670Z,77.29
2023-04-01T21:24:47.506Z,76.66
2023-04-01T21:27:42.027Z,77.10
2023-04-01T21:30:42.385Z,77.35
2023-04-01T21:33:34.274Z,77.42
2023-04-01T21:36:22.447Z,76.86
2023-04-01T21:39:09.237Z,76.66
2023-04-01T21:42:03.165Z,76.14
2023-04-01T21:45:15.871Z,75.99
2023-04-01T21:48:21.016Z,75.84
2023-04-01T21:51:30.829Z,75.91
2023-04-01T21:54:40.754Z,75.59
2023-04-01T21:57:46.008Z,75.38
2023-04-01T22:00:29.222Z,75.57
2023-04-01T22:03:37.861Z,75.41
2023-04-01T22:06:30.160Z,74.79
2023-04-01T22:09:14.540Z,74.96
2023-04-01T22:12:06.344Z,74.36
2023-04-01T22:14:51.466Z,74.94
2023-04-01T22:17:37.853Z,74.93
2023-04-01T22:20:25.640Z,74.75
2023-04-01T22:23:18.899Z,75.31
2023-04-01T22:26:00.312Z,74.90
2023-04-01T22:28:41.929Z,74.65
2023-04-01T22:31:20.809Z,74.47
2023-04-01T22:34:05.887Z,74.46
2023-04-01T22:36:48.282Z,74.60
2023-04-01T22:39:39.170Z,74.61
2023-04-01T22:42:26.431Z,75.03
2023-04-01T22:45:14.347Z,74.45
2023-04-01T22:48:03.169Z,74.94
2023-04-01T22:50:41.595Z,74.94
2023-04-01T22:53:27.634Z,75.36
2023-04-01T22:56:07.325Z,75.39
2023-04-01T22:58:44.833Z,75.48
2023-04-01T23:01:22.116Z,75.62
2023-04-01T23:03:56.048Z,75.36
2023-04-01T23:06:33.170Z,75.28
2023-04-01T23:09:15.265Z,75.26
2023-04-01T23:11:55.508Z,75.32
2023-04-01T23:14:41.863Z,74.93
2023-04-01T23:17:40.730Z,75.19
2023-04-01T23:20:27.361Z,75.38
2023-04-01T23:23:16.000Z,75.33
2023-04-01T23:25:58.212Z,75.34
2023-04-01T23:28:48.342Z,75.21
2023-04-01T23:31:40.566Z,75.18
2023-04-01T23:34:29.971Z,75.04
2023-04-01T23:37:04.687Z,75.78
2023-04-01T23:39:40.916Z,75.89
2023-04-01T23:42:19.078Z,76.47
2023-04-01T23:44:52.248Z,77.08
2023-04-01T23:47:26.262Z,77.59
2023-04-01T23:50:04.275Z,78.33
2023-04-01T23:52:39.145Z,79.23
2023-04-01T23:55:21.147Z,79.63
2023-04-01T23:58:18.691Z,79.20
